sensor_id;sensor_type;location;lat;lon;timestamp;pressure;altitude;pressure_sealevel;temperature;humidity
72921;BME280;61064;51.654;5.476;2023-07-09T00:02:18;101668.88;;;24.92;64.35
72921;BME280;61064;51.654;5.476;2023-07-09T00:04:44;101672.63;;;24.90;64.51
72921;BME280;61064;51.654;5.476;2023-07-09T00:09:44;101668.47;;;24.79;64.72
72921;BME280;61064;51.654;5.476;2023-07-09T00:12:14;101674.97;;;24.75;64.73
72921;BME280;61064;51.654;5.476;2023-07-09T00:14:40;101675.06;;;24.74;64.74
72921;BME280;61064;51.654;5.476;2023-07-09T00:17:19;101673.44;;;24.68;64.48
72921;BME280;61064;51.654;5.476;2023-07-09T00:19:46;101680.03;;;24.63;64.53
72921;BME280;61064;51.654;5.476;2023-07-09T00:22:15;101677.28;;;24.63;65.04
72921;BME280;61064;51.654;5.476;2023-07-09T00:24:44;101685.56;;;24.60;64.72
72921;BME280;61064;51.654;5.476;2023-07-09T00:27:11;101683.03;;;24.55;65.25
72921;BME280;61064;51.654;5.476;2023-07-09T00:29:36;101681.38;;;24.51;65.17
72921;BME280;61064;51.654;5.476;2023-07-09T00:32:02;101678.81;;;24.47;65.50
72921;BME280;61064;51.654;5.476;2023-07-09T00:34:27;101682.72;;;24.39;65.54
72921;BME280;61064;51.654;5.476;2023-07-09T00:36:53;101687.38;;;24.36;65.40
72921;BME280;61064;51.654;5.476;2023-07-09T00:39:20;101683.00;;;24.32;65.80
72921;BME280;61064;51.654;5.476;2023-07-09T00:41:47;101685.00;;;24.27;66.08
72921;BME280;61064;51.654;5.476;2023-07-09T00:44:24;101685.19;;;24.22;66.17
72921;BME280;61064;51.654;5.476;2023-07-09T00:49:34;101697.31;;;24.12;66.75
72921;BME280;61064;51.654;5.476;2023-07-09T00:52:05;101697.41;;;24.09;66.85
72921;BME280;61064;51.654;5.476;2023-07-09T00:54:41;101687.59;;;24.05;66.97
72921;BME280;61064;51.654;5.476;2023-07-09T00:57:11;101689.47;;;24.03;67.30
72921;BME280;61064;51.654;5.476;2023-07-09T00:59:39;101684.97;;;24.02;67.34
72921;BME280;61064;51.654;5.476;2023-07-09T01:02:07;101690.41;;;24.02;67.37
72921;BME280;61064;51.654;5.476;2023-07-09T01:04:36;101683.44;;;23.95;67.39
72921;BME280;61064;51.654;5.476;2023-07-09T01:07:04;101690.66;;;23.96;67.39
72921;BME280;61064;51.654;5.476;2023-07-09T01:09:30;101687.97;;;23.94;67.73
72921;BME280;61064;51.654;5.476;2023-07-09T01:11:56;101680.13;;;23.85;67.53
72921;BME280;61064;51.654;5.476;2023-07-09T01:14:26;101690.22;;;23.82;67.71
72921;BME280;61064;51.654;5.476;2023-07-09T01:16:58;101696.72;;;23.78;68.29
72921;BME280;61064;51.654;5.476;2023-07-09T01:19:30;101692.56;;;23.68;68.37
72921;BME280;61064;51.654;5.476;2023-07-09T01:22:05;101691.13;;;23.56;68.35
72921;BME280;61064;51.654;5.476;2023-07-09T01:27:11;101693.25;;;23.46;68.77
72921;BME280;61064;51.654;5.476;2023-07-09T01:29:37;101695.19;;;23.41;68.72
72921;BME280;61064;51.654;5.476;2023-07-09T01:32:03;101686.22;;;23.39;68.82
72921;BME280;61064;51.654;5.476;2023-07-09T01:34:32;101686.16;;;23.41;68.73
72921;BME280;61064;51.654;5.476;2023-07-09T01:36:57;101701.53;;;23.42;68.67
72921;BME280;61064;51.654;5.476;2023-07-09T01:39:25;101707.81;;;23.44;68.50
72921;BME280;61064;51.654;5.476;2023-07-09T01:41:50;101710.56;;;23.42;68.73
72921;BME280;61064;51.654;5.476;2023-07-09T01:44:16;101703.34;;;23.41;68.27
72921;BME280;61064;51.654;5.476;2023-07-09T01:46:42;101704.31;;;23.40;68.35
72921;BME280;61064;51.654;5.476;2023-07-09T01:49:07;101708.84;;;23.40;68.37
72921;BME280;61064;51.654;5.476;2023-07-09T01:51:34;101711.59;;;23.38;68.33
72921;BME280;61064;51.654;5.476;2023-07-09T01:54:01;101708.00;;;23.38;68.23
72921;BME280;61064;51.654;5.476;2023-07-09T01:56:27;101707.09;;;23.37;68.41
72921;BME280;61064;51.654;5.476;2023-07-09T01:58:53;101714.47;;;23.34;68.08
72921;BME280;61064;51.654;5.476;2023-07-09T02:01:30;101709.94;;;23.34;68.46
72921;BME280;61064;51.654;5.476;2023-07-09T02:03:55;101717.13;;;23.35;68.45
72921;BME280;61064;51.654;5.476;2023-07-09T02:06:22;101716.25;;;23.35;68.17
72921;BME280;61064;51.654;5.476;2023-07-09T02:08:49;101718.13;;;23.33;68.25
72921;BME280;61064;51.654;5.476;2023-07-09T02:11:15;101719.06;;;23.32;68.15
72921;BME280;61064;51.654;5.476;2023-07-09T02:13:40;101714.63;;;23.29;68.62
72921;BME280;61064;51.654;5.476;2023-07-09T02:16:06;101719.19;;;23.29;68.66
72921;BME280;61064;51.654;5.476;2023-07-09T02:18:31;101718.31;;;23.27;68.42
72921;BME280;61064;51.654;5.476;2023-07-09T02:20:56;101709.41;;;23.23;68.61
72921;BME280;61064;51.654;5.476;2023-07-09T02:23:26;101709.47;;;23.20;68.57
72921;BME280;61064;51.654;5.476;2023-07-09T02:25:52;101715.91;;;23.17;68.68
72921;BME280;61064;51.654;5.476;2023-07-09T02:28:17;101714.28;;;23.12;68.89
72921;BME280;61064;51.654;5.476;2023-07-09T02:30:43;101711.69;;;23.07;68.79
72921;BME280;61064;51.654;5.476;2023-07-09T02:33:10;101704.44;;;23.08;69.19
72921;BME280;61064;51.654;5.476;2023-07-09T02:35:35;101711.81;;;23.04;69.29
72921;BME280;61064;51.654;5.476;2023-07-09T02:38:02;101706.47;;;23.01;69.27
72921;BME280;61064;51.654;5.476;2023-07-09T02:40:27;101699.34;;;22.97;69.08
72921;BME280;61064;51.654;5.476;2023-07-09T02:42:53;101711.09;;;22.98;69.50
72921;BME280;61064;51.654;5.476;2023-07-09T02:45:21;101707.50;;;22.97;69.36
72921;BME280;61064;51.654;5.476;2023-07-09T02:47:47;101702.22;;;22.93;69.24
72921;BME280;61064;51.654;5.476;2023-07-09T02:50:12;101705.84;;;22.92;69.28
72921;BME280;61064;51.654;5.476;2023-07-09T02:52:38;101713.06;;;22.93;69.62
72921;BME280;61064;51.654;5.476;2023-07-09T02:55:03;101713.06;;;22.93;69.38
72921;BME280;61064;51.654;5.476;2023-07-09T02:57:29;101706.91;;;22.88;69.63
72921;BME280;61064;51.654;5.476;2023-07-09T02:59:54;101706.00;;;22.87;69.46
72921;BME280;61064;51.654;5.476;2023-07-09T03:02:20;101701.56;;;22.85;69.56
72921;BME280;61064;51.654;5.476;2023-07-09T03:04:45;101706.16;;;22.83;70.10
72921;BME280;61064;51.654;5.476;2023-07-09T03:07:10;101706.19;;;22.81;69.95
72921;BME280;61064;51.654;5.476;2023-07-09T03:09:36;101704.47;;;22.78;69.91
72921;BME280;61064;51.654;5.476;2023-07-09T03:12:02;101699.09;;;22.77;69.84
72921;BME280;61064;51.654;5.476;2023-07-09T03:14:27;101698.22;;;22.75;69.96
72921;BME280;61064;51.654;5.476;2023-07-09T03:16:53;101706.38;;;22.75;70.06
72921;BME280;61064;51.654;5.476;2023-07-09T03:19:18;101718.16;;;22.74;70.09
72921;BME280;61064;51.654;5.476;2023-07-09T03:21:44;101706.47;;;22.72;70.14
72921;BME280;61064;51.654;5.476;2023-07-09T03:24:09;101710.13;;;22.69;69.93
72921;BME280;61064;51.654;5.476;2023-07-09T03:26:38;101695.91;;;22.61;70.32
72921;BME280;61064;51.654;5.476;2023-07-09T03:29:03;101702.22;;;22.62;70.26
72921;BME280;61064;51.654;5.476;2023-07-09T03:31:29;101706.75;;;22.61;70.50
72921;BME280;61064;51.654;5.476;2023-07-09T03:33:55;101716.69;;;22.62;70.35
72921;BME280;61064;51.654;5.476;2023-07-09T03:36:23;101703.16;;;22.61;70.72
72921;BME280;61064;51.654;5.476;2023-07-09T03:38:48;101699.72;;;22.54;70.91
72921;BME280;61064;51.654;5.476;2023-07-09T03:41:14;101713.28;;;22.54;70.86
72921;BME280;61064;51.654;5.476;2023-07-09T03:43:39;101703.50;;;22.49;70.85
72921;BME280;61064;51.654;5.476;2023-07-09T03:46:04;101706.22;;;22.49;71.00
72921;BME280;61064;51.654;5.476;2023-07-09T03:48:30;101708.97;;;22.47;70.93
72921;BME280;61064;51.654;5.476;2023-07-09T03:50:55;101700.84;;;22.47;71.20
72921;BME280;61064;51.654;5.476;2023-07-09T03:53:21;101704.59;;;22.43;71.52
72921;BME280;61064;51.654;5.476;2023-07-09T03:55:52;101700.09;;;22.42;71.18
72921;BME280;61064;51.654;5.476;2023-07-09T03:58:17;101701.91;;;22.42;71.46
72921;BME280;61064;51.654;5.476;2023-07-09T04:00:43;101701.91;;;22.42;71.28
72921;BME280;61064;51.654;5.476;2023-07-09T04:03:10;101698.41;;;22.38;71.52
72921;BME280;61064;51.654;5.476;2023-07-09T04:05:47;101702.84;;;22.40;71.67
72921;BME280;61064;51.654;5.476;2023-07-09T04:08:22;101709.22;;;22.39;71.49
72921;BME280;61064;51.654;5.476;2023-07-09T04:10:47;101701.97;;;22.40;71.74
72921;BME280;61064;51.654;5.476;2023-07-09T04:13:13;101702.84;;;22.40;71.91
72921;BME280;61064;51.654;5.476;2023-07-09T04:15:38;101696.59;;;22.38;71.56
72921;BME280;61064;51.654;5.476;2023-07-09T04:18:05;101699.16;;;22.43;72.11
72921;BME280;61064;51.654;5.476;2023-07-09T04:20:33;101701.09;;;22.39;71.93
72921;BME280;61064;51.654;5.476;2023-07-09T04:23:03;101699.94;;;22.47;72.11
72921;BME280;61064;51.654;5.476;2023-07-09T04:25:28;101705.34;;;22.48;71.89
72921;BME280;61064;51.654;5.476;2023-07-09T04:27:54;101701.84;;;22.45;71.81
72921;BME280;61064;51.654;5.476;2023-07-09T04:30:19;101698.09;;;22.49;71.82
72921;BME280;61064;51.654;5.476;2023-07-09T04:32:47;101713.34;;;22.53;71.99
72921;BME280;61064;51.654;5.476;2023-07-09T04:35:14;101714.19;;;22.55;71.96
72921;BME280;61064;51.654;5.476;2023-07-09T04:37:40;101705.03;;;22.59;71.88
72921;BME280;61064;51.654;5.476;2023-07-09T04:40:07;101712.19;;;22.61;71.95
72921;BME280;61064;51.654;5.476;2023-07-09T04:42:36;101712.97;;;22.65;71.55
72921;BME280;61064;51.654;5.476;2023-07-09T04:45:03;101712.06;;;22.66;72.01
72921;BME280;61064;51.654;5.476;2023-07-09T04:47:28;101717.34;;;22.72;71.80
72921;BME280;61064;51.654;5.476;2023-07-09T04:49:54;101714.59;;;22.73;71.96
72921;BME280;61064;51.654;5.476;2023-07-09T04:52:19;101709.97;;;22.75;71.83
72921;BME280;61064;51.654;5.476;2023-07-09T04:54:44;101715.25;;;22.80;71.74
72921;BME280;61064;51.654;5.476;2023-07-09T04:57:11;101719.59;;;22.86;71.98
72921;BME280;61064;51.654;5.476;2023-07-09T04:59:37;101721.44;;;22.85;71.84
72921;BME280;61064;51.654;5.476;2023-07-09T05:02:02;101709.50;;;22.91;71.92
72921;BME280;61064;51.654;5.476;2023-07-09T05:04:29;101713.91;;;22.95;71.99
72921;BME280;61064;51.654;5.476;2023-07-09T05:06:56;101704.75;;;22.99;71.80
72921;BME280;61064;51.654;5.476;2023-07-09T05:09:21;101707.31;;;23.03;72.02
72921;BME280;61064;51.654;5.476;2023-07-09T05:11:48;101716.25;;;23.07;71.90
72921;BME280;61064;51.654;5.476;2023-07-09T05:14:17;101712.47;;;23.12;71.87
72921;BME280;61064;51.654;5.476;2023-07-09T05:16:43;101720.50;;;23.15;72.01
72921;BME280;61064;51.654;5.476;2023-07-09T05:19:09;101708.66;;;23.18;71.75
72921;BME280;61064;51.654;5.476;2023-07-09T05:21:34;101713.00;;;23.24;71.82
72921;BME280;61064;51.654;5.476;2023-07-09T05:23:59;101705.63;;;23.27;71.80
72921;BME280;61064;51.654;5.476;2023-07-09T05:26:25;101712.66;;;23.34;71.67
72921;BME280;61064;51.654;5.476;2023-07-09T05:28:50;101710.72;;;23.38;71.75
72921;BME280;61064;51.654;5.476;2023-07-09T05:31:16;101709.59;;;23.45;71.54
72921;BME280;61064;51.654;5.476;2023-07-09T05:33:41;101712.94;;;23.53;71.39
72921;BME280;61064;51.654;5.476;2023-07-09T05:36:08;101713.59;;;23.61;71.56
72921;BME280;61064;51.654;5.476;2023-07-09T05:38:39;101713.22;;;23.72;71.37
72921;BME280;61064;51.654;5.476;2023-07-09T05:41:06;101705.63;;;23.81;71.15
72921;BME280;61064;51.654;5.476;2023-07-09T05:43:33;101715.03;;;23.97;70.87
72921;BME280;61064;51.654;5.476;2023-07-09T05:46:02;101716.38;;;24.11;70.59
72921;BME280;61064;51.654;5.476;2023-07-09T05:48:28;101718.63;;;24.24;70.66
72921;BME280;61064;51.654;5.476;2023-07-09T05:50:54;101718.84;;;24.43;70.10
72921;BME280;61064;51.654;5.476;2023-07-09T05:53:22;101719.25;;;24.57;69.80
72921;BME280;61064;51.654;5.476;2023-07-09T05:55:48;101711.28;;;24.74;69.60
72921;BME280;61064;51.654;5.476;2023-07-09T05:58:14;101711.50;;;24.93;69.07
72921;BME280;61064;51.654;5.476;2023-07-09T06:00:40;101717.19;;;25.10;68.79
72921;BME280;61064;51.654;5.476;2023-07-09T06:03:06;101711.94;;;25.27;68.21
72921;BME280;61064;51.654;5.476;2023-07-09T06:05:33;101715.81;;;25.44;67.99
72921;BME280;61064;51.654;5.476;2023-07-09T06:07:59;101713.34;;;25.59;67.57
72921;BME280;61064;51.654;5.476;2023-07-09T06:10:24;101718.91;;;25.78;67.30
72921;BME280;61064;51.654;5.476;2023-07-09T06:12:50;101716.47;;;25.92;66.79
72921;BME280;61064;51.654;5.476;2023-07-09T06:15:15;101726.72;;;26.07;66.58
72921;BME280;61064;51.654;5.476;2023-07-09T06:17:41;101724.25;;;26.23;66.45
72921;BME280;61064;51.654;5.476;2023-07-09T06:20:07;101716.41;;;26.36;66.13
72921;BME280;61064;51.654;5.476;2023-07-09T06:22:33;101718.41;;;26.51;65.48
72921;BME280;61064;51.654;5.476;2023-07-09T06:24:58;101723.22;;;26.65;65.02
72921;BME280;61064;51.654;5.476;2023-07-09T06:27:24;101722.66;;;26.77;64.51
72921;BME280;61064;51.654;5.476;2023-07-09T06:29:49;101718.44;;;26.90;64.16
72921;BME280;61064;51.654;5.476;2023-07-09T06:32:15;101722.28;;;27.05;63.58
72921;BME280;61064;51.654;5.476;2023-07-09T06:34:40;101726.19;;;27.18;63.10
72921;BME280;61064;51.654;5.476;2023-07-09T06:37:05;101722.75;;;27.31;62.67
72921;BME280;61064;51.654;5.476;2023-07-09T06:39:31;101724.81;;;27.45;62.39
72921;BME280;61064;51.654;5.476;2023-07-09T06:41:56;101715.09;;;27.58;61.91
72921;BME280;61064;51.654;5.476;2023-07-09T06:44:22;101717.09;;;27.72;61.40
72921;BME280;61064;51.654;5.476;2023-07-09T06:46:47;101716.41;;;27.86;61.02
72921;BME280;61064;51.654;5.476;2023-07-09T06:49:13;101721.06;;;28.01;60.34
72921;BME280;61064;51.654;5.476;2023-07-09T06:51:39;101721.41;;;28.12;60.15
72921;BME280;61064;51.654;5.476;2023-07-09T06:54:04;101720.78;;;28.24;59.92
72921;BME280;61064;51.654;5.476;2023-07-09T06:56:30;101716.34;;;28.39;59.84
72921;BME280;61064;51.654;5.476;2023-07-09T06:58:57;101723.72;;;28.54;59.62
72921;BME280;61064;51.654;5.476;2023-07-09T07:01:22;101703.09;;;28.64;59.18
72921;BME280;61064;51.654;5.476;2023-07-09T07:03:48;101718.25;;;28.87;59.12
72921;BME280;61064;51.654;5.476;2023-07-09T07:06:13;101726.34;;;29.06;58.28
72921;BME280;61064;51.654;5.476;2023-07-09T07:08:38;101708.13;;;29.20;57.66
72921;BME280;61064;51.654;5.476;2023-07-09T07:11:04;101712.94;;;29.32;57.33
72921;BME280;61064;51.654;5.476;2023-07-09T07:13:36;101714.16;;;29.43;56.79
72921;BME280;61064;51.654;5.476;2023-07-09T07:16:07;101707.19;;;29.53;56.46
72921;BME280;61064;51.654;5.476;2023-07-09T07:18:33;101712.81;;;29.65;56.02
72921;BME280;61064;51.654;5.476;2023-07-09T07:20:59;101707.91;;;29.70;55.87
72921;BME280;61064;51.654;5.476;2023-07-09T07:23:24;101714.38;;;29.85;55.87
72921;BME280;61064;51.654;5.476;2023-07-09T07:25:50;101714.63;;;29.96;55.65
72921;BME280;61064;51.654;5.476;2023-07-09T07:28:16;101720.75;;;30.15;55.07
72921;BME280;61064;51.654;5.476;2023-07-09T07:30:42;101715.31;;;30.30;55.16
72921;BME280;61064;51.654;5.476;2023-07-09T07:33:09;101717.97;;;30.45;55.01
72921;BME280;61064;51.654;5.476;2023-07-09T07:35:35;101720.06;;;30.56;54.68
72921;BME280;61064;51.654;5.476;2023-07-09T07:38:02;101722.22;;;30.65;53.97
72921;BME280;61064;51.654;5.476;2023-07-09T07:40:27;101721.97;;;30.70;53.70
72921;BME280;61064;51.654;5.476;2023-07-09T07:42:52;101718.81;;;30.76;53.71
72921;BME280;61064;51.654;5.476;2023-07-09T07:45:18;101714.59;;;30.84;53.30
72921;BME280;61064;51.654;5.476;2023-07-09T07:47:44;101717.63;;;30.94;52.91
72921;BME280;61064;51.654;5.476;2023-07-09T07:50:09;101704.44;;;30.99;53.15
72921;BME280;61064;51.654;5.476;2023-07-09T07:52:38;101708.19;;;31.12;52.40
72921;BME280;61064;51.654;5.476;2023-07-09T07:55:05;101705.94;;;31.19;51.98
72921;BME280;61064;51.654;5.476;2023-07-09T07:57:30;101721.72;;;31.29;51.97
72921;BME280;61064;51.654;5.476;2023-07-09T07:59:56;101710.22;;;31.37;52.10
72921;BME280;61064;51.654;5.476;2023-07-09T08:02:24;101713.41;;;31.44;51.17
72921;BME280;61064;51.654;5.476;2023-07-09T08:04:50;101716.78;;;31.49;51.02
72921;BME280;61064;51.654;5.476;2023-07-09T08:07:17;101711.63;;;31.57;50.80
72921;BME280;61064;51.654;5.476;2023-07-09T08:09:42;101712.91;;;31.65;50.28
72921;BME280;61064;51.654;5.476;2023-07-09T08:12:09;101713.91;;;31.77;50.11
72921;BME280;61064;51.654;5.476;2023-07-09T08:14:37;101706.13;;;31.84;49.10
72921;BME280;61064;51.654;5.476;2023-07-09T08:17:02;101712.97;;;31.91;48.86
72921;BME280;61064;51.654;5.476;2023-07-09T08:19:31;101706.72;;;32.01;48.66
72921;BME280;61064;51.654;5.476;2023-07-09T08:21:57;101708.22;;;32.19;48.59
72921;BME280;61064;51.654;5.476;2023-07-09T08:24:22;101706.69;;;32.28;48.24
72921;BME280;61064;51.654;5.476;2023-07-09T08:26:48;101711.66;;;32.36;47.67
72921;BME280;61064;51.654;5.476;2023-07-09T08:29:13;101708.22;;;32.45;47.04
72921;BME280;61064;51.654;5.476;2023-07-09T08:31:38;101700.66;;;32.48;46.91
72921;BME280;61064;51.654;5.476;2023-07-09T08:34:06;101709.03;;;32.59;46.71
72921;BME280;61064;51.654;5.476;2023-07-09T08:36:32;101690.50;;;32.61;46.22
72921;BME280;61064;51.654;5.476;2023-07-09T08:38:57;101705.38;;;32.72;46.43
72921;BME280;61064;51.654;5.476;2023-07-09T08:41:39;101695.94;;;32.76;46.34
72921;BME280;61064;51.654;5.476;2023-07-09T08:44:37;101698.88;;;32.85;46.23
72921;BME280;61064;51.654;5.476;2023-07-09T08:47:23;101698.72;;;32.99;46.17
72921;BME280;61064;51.654;5.476;2023-07-09T08:49:59;101695.84;;;33.14;45.66
72921;BME280;61064;51.654;5.476;2023-07-09T08:52:31;101692.41;;;33.23;45.62
72921;BME280;61064;51.654;5.476;2023-07-09T08:55:05;101680.47;;;33.35;45.57
72921;BME280;61064;51.654;5.476;2023-07-09T08:57:43;101697.84;;;33.48;45.07
72921;BME280;61064;51.654;5.476;2023-07-09T09:00:20;101701.16;;;33.53;44.99
72921;BME280;61064;51.654;5.476;2023-07-09T09:02:55;101698.91;;;33.58;44.86
72921;BME280;61064;51.654;5.476;2023-07-09T09:05:22;101689.03;;;33.67;44.67
72921;BME280;61064;51.654;5.476;2023-07-09T09:07:58;101685.97;;;33.71;44.18
72921;BME280;61064;51.654;5.476;2023-07-09T09:10:39;101694.53;;;33.79;44.14
72921;BME280;61064;51.654;5.476;2023-07-09T09:13:13;101693.69;;;33.90;43.76
72921;BME280;61064;51.654;5.476;2023-07-09T09:15:40;101687.31;;;34.01;43.25
72921;BME280;61064;51.654;5.476;2023-07-09T09:18:26;101680.78;;;34.02;43.38
72921;BME280;61064;51.654;5.476;2023-07-09T09:21:10;101675.28;;;34.02;42.96
72921;BME280;61064;51.654;5.476;2023-07-09T09:23:46;101678.44;;;34.08;42.80
72921;BME280;61064;51.654;5.476;2023-07-09T09:26:22;101673.94;;;34.18;42.25
72921;BME280;61064;51.654;5.476;2023-07-09T09:28:48;101680.28;;;34.32;41.93
72921;BME280;61064;51.654;5.476;2023-07-09T09:31:14;101680.91;;;34.46;41.98
72921;BME280;61064;51.654;5.476;2023-07-09T09:33:44;101684.56;;;34.58;41.41
72921;BME280;61064;51.654;5.476;2023-07-09T09:36:15;101687.84;;;34.63;41.41
72921;BME280;61064;51.654;5.476;2023-07-09T09:38:42;101664.25;;;34.70;41.38
72921;BME280;61064;51.654;5.476;2023-07-09T09:41:16;101672.78;;;34.78;41.00
72921;BME280;61064;51.654;5.476;2023-07-09T09:43:45;101669.53;;;34.84;41.18
72921;BME280;61064;51.654;5.476;2023-07-09T09:46:17;101666.75;;;34.95;40.63
72921;BME280;61064;51.654;5.476;2023-07-09T09:48:46;101668.63;;;35.06;39.44
72921;BME280;61064;51.654;5.476;2023-07-09T09:51:12;101667.50;;;35.09;39.59
72921;BME280;61064;51.654;5.476;2023-07-09T09:53:39;101658.69;;;35.15;39.10
72921;BME280;61064;51.654;5.476;2023-07-09T09:56:17;101654.44;;;35.22;39.38
72921;BME280;61064;51.654;5.476;2023-07-09T09:58:44;101653.13;;;35.37;38.82
72921;BME280;61064;51.654;5.476;2023-07-09T10:01:17;101643.78;;;35.49;38.53
72921;BME280;61064;51.654;5.476;2023-07-09T10:03:43;101639.69;;;35.64;38.46
72921;BME280;61064;51.654;5.476;2023-07-09T10:06:16;101631.88;;;35.69;37.66
72921;BME280;61064;51.654;5.476;2023-07-09T10:08:57;101642.56;;;35.74;38.32
72921;BME280;61064;51.654;5.476;2023-07-09T10:11:44;101636.34;;;35.81;37.72
72921;BME280;61064;51.654;5.476;2023-07-09T10:14:41;101639.06;;;35.93;37.50
72921;BME280;61064;51.654;5.476;2023-07-09T10:20:07;101641.72;;;36.15;37.12
72921;BME280;61064;51.654;5.476;2023-07-09T10:23:25;101641.91;;;36.23;36.93
72921;BME280;61064;51.654;5.476;2023-07-09T10:31:15;101648.34;;;36.44;37.18
72921;BME280;61064;51.654;5.476;2023-07-09T10:37:04;101654.44;;;36.69;36.46
72921;BME280;61064;51.654;5.476;2023-07-09T10:39:37;101660.06;;;36.78;36.82
72921;BME280;61064;51.654;5.476;2023-07-09T10:42:04;101663.41;;;36.82;36.14
72921;BME280;61064;51.654;5.476;2023-07-09T10:44:39;101656.53;;;36.76;36.43
72921;BME280;61064;51.654;5.476;2023-07-09T10:47:13;101658.56;;;36.74;36.84
72921;BME280;61064;51.654;5.476;2023-07-09T10:49:43;101656.69;;;36.84;36.63
72921;BME280;61064;51.654;5.476;2023-07-09T10:52:13;101665.50;;;36.89;35.93
72921;BME280;61064;51.654;5.476;2023-07-09T10:57:58;101659.09;;;36.68;36.66
72921;BME280;61064;51.654;5.476;2023-07-09T11:00:34;101658.72;;;36.73;36.78
72921;BME280;61064;51.654;5.476;2023-07-09T11:03:03;101650.84;;;36.78;36.94
72921;BME280;61064;51.654;5.476;2023-07-09T11:05:34;101634.38;;;36.86;36.56
72921;BME280;61064;51.654;5.476;2023-07-09T11:08:04;101633.47;;;36.85;36.27
72921;BME280;61064;51.654;5.476;2023-07-09T11:10:39;101625.16;;;36.85;36.62
72921;BME280;61064;51.654;5.476;2023-07-09T11:13:26;101638.09;;;37.05;36.33
72921;BME280;61064;51.654;5.476;2023-07-09T11:15:56;101633.91;;;37.30;36.34
72921;BME280;61064;51.654;5.476;2023-07-09T11:18:29;101627.53;;;37.39;36.22
72921;BME280;61064;51.654;5.476;2023-07-09T11:21:14;101638.78;;;37.57;35.38
72921;BME280;61064;51.654;5.476;2023-07-09T11:23:51;101629.97;;;37.52;35.44
72921;BME280;61064;51.654;5.476;2023-07-09T11:26:31;101638.63;;;37.49;35.45
72921;BME280;61064;51.654;5.476;2023-07-09T11:34:09;101660.09;;;37.28;36.08
72921;BME280;61064;51.654;5.476;2023-07-09T11:36:46;101647.03;;;37.19;36.13
72921;BME280;61064;51.654;5.476;2023-07-09T11:39:46;101655.94;;;37.13;36.29
72921;BME280;61064;51.654;5.476;2023-07-09T11:42:47;101638.34;;;36.93;36.61
72921;BME280;61064;51.654;5.476;2023-07-09T11:45:19;101635.13;;;36.88;36.92
72921;BME280;61064;51.654;5.476;2023-07-09T11:48:23;101660.66;;;36.91;36.82
72921;BME280;61064;51.654;5.476;2023-07-09T11:50:55;101643.53;;;36.77;36.76
72921;BME280;61064;51.654;5.476;2023-07-09T11:53:41;101666.34;;;36.90;36.32
72921;BME280;61064;51.654;5.476;2023-07-09T11:56:09;101661.63;;;36.71;36.75
72921;BME280;61064;51.654;5.476;2023-07-09T11:58:36;101674.66;;;36.59;37.27
72921;BME280;61064;51.654;5.476;2023-07-09T12:01:16;101689.66;;;36.57;37.05
72921;BME280;61064;51.654;5.476;2023-07-09T12:03:45;101675.88;;;36.46;36.96
72921;BME280;61064;51.654;5.476;2023-07-09T12:08:42;101683.81;;;36.30;37.39
72921;BME280;61064;51.654;5.476;2023-07-09T12:11:35;101678.13;;;36.10;37.62
72921;BME280;61064;51.654;5.476;2023-07-09T12:14:13;101666.22;;;35.99;38.25
72921;BME280;61064;51.654;5.476;2023-07-09T12:16:44;101664.19;;;36.01;37.95
72921;BME280;61064;51.654;5.476;2023-07-09T12:19:12;101676.03;;;36.03;38.26
72921;BME280;61064;51.654;5.476;2023-07-09T12:21:40;101654.06;;;35.90;38.14
72921;BME280;61064;51.654;5.476;2023-07-09T12:24:25;101675.19;;;35.91;38.28
72921;BME280;61064;51.654;5.476;2023-07-09T12:27:02;101653.03;;;35.70;38.65
72921;BME280;61064;51.654;5.476;2023-07-09T12:29:30;101650.41;;;35.58;38.54
72921;BME280;61064;51.654;5.476;2023-07-09T12:31:57;101637.75;;;35.44;39.24
72921;BME280;61064;51.654;5.476;2023-07-09T12:34:24;101634.22;;;35.42;38.83
72921;BME280;61064;51.654;5.476;2023-07-09T12:36:53;101648.94;;;35.42;39.13
72921;BME280;61064;51.654;5.476;2023-07-09T12:39:24;101636.91;;;35.32;38.85
72921;BME280;61064;51.654;5.476;2023-07-09T12:41:54;101648.50;;;35.26;39.51
72921;BME280;61064;51.654;5.476;2023-07-09T12:44:21;101647.13;;;35.21;39.45
72921;BME280;61064;51.654;5.476;2023-07-09T12:46:49;101657.19;;;35.22;39.58
72921;BME280;61064;51.654;5.476;2023-07-09T12:49:25;101668.75;;;35.16;40.23
72921;BME280;61064;51.654;5.476;2023-07-09T12:51:55;101664.63;;;35.10;41.48
72921;BME280;61064;51.654;5.476;2023-07-09T12:54:20;101667.75;;;34.94;42.49
72921;BME280;61064;51.654;5.476;2023-07-09T12:56:47;101663.38;;;34.70;43.39
72921;BME280;61064;51.654;5.476;2023-07-09T12:59:44;101658.41;;;34.40;44.21
72921;BME280;61064;51.654;5.476;2023-07-09T13:02:21;101660.72;;;34.11;45.28
72921;BME280;61064;51.654;5.476;2023-07-09T13:04:48;101671.59;;;33.90;44.99
72921;BME280;61064;51.654;5.476;2023-07-09T13:07:53;101666.00;;;33.55;45.51
72921;BME280;61064;51.654;5.476;2023-07-09T13:10:22;101674.94;;;33.35;46.02
72921;BME280;61064;51.654;5.476;2023-07-09T13:12:52;101674.00;;;33.11;46.59
72921;BME280;61064;51.654;5.476;2023-07-09T13:15:21;101678.25;;;32.91;46.99
72921;BME280;61064;51.654;5.476;2023-07-09T13:17:47;101683.91;;;32.77;47.42
72921;BME280;61064;51.654;5.476;2023-07-09T13:20:13;101679.84;;;32.70;47.64
72921;BME280;61064;51.654;5.476;2023-07-09T13:22:38;101682.34;;;32.60;47.81
72921;BME280;61064;51.654;5.476;2023-07-09T13:25:04;101691.25;;;32.51;47.75
72921;BME280;61064;51.654;5.476;2023-07-09T13:27:34;101684.75;;;32.39;47.81
72921;BME280;61064;51.654;5.476;2023-07-09T13:29:59;101669.56;;;32.21;48.10
72921;BME280;61064;51.654;5.476;2023-07-09T13:32:25;101669.53;;;32.08;47.93